Time;durP1;ratioP1;P1;durP2;ratioP2;P2;SDS_P1;SDS_P2;PMS_P1;PMS_P2;Temp;Humidity;BMP_temperature;BMP_pressure;BME280_temperature;BME280_humidity;BME280_pressure;Samples;Min_cycle;Max_cycle;Signal;HPM_P1;HPM_P2
2022/11/18 00:00:14;;;;;;;29.83;20.13;;;7.10;99.90;;;;;;5053443;28;20041;-87
2022/11/18 00:02:40;;;;;;;28.80;17.92;;;7.00;99.90;;;;;;5036569;28;20095;-87
2022/11/18 00:05:05;;;;;;;29.42;18.83;;;7.10;99.90;;;;;;5052806;28;20048;-88
2022/11/18 00:07:31;;;;;;;13.10;9.02;;;7.10;99.90;;;;;;5050733;28;20049;-87
2022/11/18 00:09:57;;;;;;;27.42;17.17;;;7.30;99.90;;;;;;5014876;28;20048;-87
2022/11/18 00:15:07;;;;;;;31.15;20.42;;;7.00;99.90;;;;;;5038579;28;20440;-86
2022/11/18 00:17:32;;;;;;;29.75;19.02;;;7.00;99.90;;;;;;5035800;28;20044;-86
2022/11/18 00:19:58;;;;;;;27.17;17.67;;;7.40;99.90;;;;;;5025418;28;20080;-87
2022/11/18 00:22:24;;;;;;;31.75;18.88;;;7.10;99.90;;;;;;5002942;28;20103;-85
2022/11/18 00:24:49;;;;;;;31.52;17.25;;;7.00;99.90;;;;;;5010731;28;20140;-87
2022/11/18 00:27:15;;;;;;;32.63;19.75;;;7.00;99.90;;;;;;5035722;28;20041;-83
2022/11/18 00:29:41;;;;;;;32.65;20.90;;;6.80;99.90;;;;;;5052132;28;20041;-84
2022/11/18 00:32:07;;;;;;;33.13;21.30;;;7.30;99.90;;;;;;5052077;28;20045;-86
2022/11/18 00:34:33;;;;;;;30.83;19.85;;;7.00;99.90;;;;;;5035139;28;20183;-87
2022/11/18 00:36:58;;;;;;;37.03;21.23;;;7.10;99.90;;;;;;5036057;28;20494;-87
2022/11/18 00:39:25;;;;;;;34.28;20.23;;;7.00;99.90;;;;;;5057816;28;20060;-82
2022/11/18 00:44:35;;;;;;;38.45;23.17;;;7.00;99.90;;;;;;5027114;28;20053;-87
2022/11/18 00:47:01;;;;;;;31.30;17.40;;;7.40;99.90;;;;;;5016622;28;20389;-87
2022/11/18 00:49:27;;;;;;;37.55;20.52;;;7.00;99.90;;;;;;5035005;28;20064;-86
2022/11/18 00:51:53;;;;;;;36.35;21.55;;;7.00;99.90;;;;;;5018763;28;20045;-87
2022/11/18 00:54:18;;;;;;;32.97;20.20;;;6.90;99.90;;;;;;5036170;28;20047;-87
2022/11/18 00:56:44;;;;;;;34.58;20.25;;;7.00;99.90;;;;;;5035187;28;20485;-87
2022/11/18 00:59:10;;;;;;;34.50;21.40;;;6.90;99.90;;;;;;5035627;28;20110;-87
2022/11/18 01:01:35;;;;;;;32.33;20.77;;;7.00;99.90;;;;;;5033888;28;20485;-88
2022/11/18 01:04:04;;;;;;;31.80;18.88;;;7.00;99.90;;;;;;5034963;28;20041;-87
2022/11/18 01:06:30;;;;;;;29.60;17.23;;;7.00;99.90;;;;;;5035584;28;20041;-87
2022/11/18 01:08:55;;;;;;;30.00;18.42;;;7.00;99.90;;;;;;5033191;28;20056;-87
2022/11/18 01:14:05;;;;;;;32.28;19.88;;;7.00;99.90;;;;;;5023992;28;20110;-86
2022/11/18 01:16:31;;;;;;;30.77;19.30;;;7.00;99.90;;;;;;5051745;28;20499;-85
2022/11/18 01:18:56;;;;;;;29.02;18.00;;;7.10;99.90;;;;;;5002012;28;20497;-88
2022/11/18 01:21:22;;;;;;;29.92;18.80;;;7.10;99.90;;;;;;5019050;28;20076;-89
2022/11/18 01:23:48;;;;;;;32.47;19.58;;;7.10;99.90;;;;;;5018884;28;20382;-87
2022/11/18 01:26:14;;;;;;;35.63;19.98;;;7.00;99.90;;;;;;5018868;28;20037;-87
2022/11/18 01:28:40;;;;;;;36.75;21.65;;;8.20;99.90;;;;;;5018822;28;20052;-87
2022/11/18 01:31:13;;;;;;;25.88;16.17;;;7.00;99.90;;;;;;5001855;28;20048;-88
2022/11/18 01:33:42;;;;;;;36.40;20.40;;;7.00;99.90;;;;;;5019741;28;20053;-87
2022/11/18 01:36:26;;;;;;;36.63;20.92;;;7.00;99.90;;;;;;5018423;28;20302;-87
2022/11/18 01:38:52;;;;;;;37.50;21.98;;;6.90;99.90;;;;;;5035275;28;20497;-87
2022/11/18 01:41:18;;;;;;;28.95;18.45;;;6.90;99.90;;;;;;5018267;28;20049;-87
2022/11/18 01:44:28;;;;;;;38.00;21.95;;;7.10;99.90;;;;;;5018022;28;20258;-87
2022/11/18 01:46:54;;;;;;;37.03;21.95;;;7.00;99.90;;;;;;5031110;28;20132;-87
2022/11/18 01:49:20;;;;;;;36.25;20.95;;;7.10;99.90;;;;;;5034889;28;20049;-87
2022/11/18 01:51:52;;;;;;;35.70;21.83;;;6.90;99.90;;;;;;5017890;28;20485;-86
2022/11/18 01:54:25;;;;;;;42.15;22.60;;;6.90;99.90;;;;;;5019106;28;20182;-84
2022/11/18 01:56:53;;;;;;;28.67;14.60;;;6.90;99.90;;;;;;5028672;28;20049;-82
2022/11/18 01:59:21;;;;;;;32.60;21.00;;;6.90;99.90;;;;;;5038238;28;20065;-87
2022/11/18 02:01:46;;;;;;;43.83;23.58;;;7.00;99.90;;;;;;5032929;28;20128;-87
2022/11/18 02:04:12;;;;;;;44.03;23.33;;;6.90;99.90;;;;;;5018386;28;20128;-88
2022/11/18 02:06:38;;;;;;;39.55;21.23;;;6.90;99.90;;;;;;5033554;28;20136;-86
2022/11/18 02:09:03;;;;;;;35.63;20.80;;;7.00;99.90;;;;;;5032074;28;20077;-87
2022/11/18 02:14:21;;;;;;;42.90;23.38;;;7.10;99.90;;;;;;5037932;28;20057;-87
2022/11/18 02:16:53;;;;;;;39.33;23.45;;;6.90;99.90;;;;;;5001838;28;20053;-85
2022/11/18 02:19:43;;;;;;;40.65;22.45;;;7.00;99.90;;;;;;5039116;28;20053;-85
2022/11/18 02:22:47;;;;;;;38.80;21.98;;;6.80;99.90;;;;;;5056970;28;20049;-85
2022/11/18 02:25:31;;;;;;;39.17;21.58;;;6.90;99.90;;;;;;5071628;28;20053;-85
2022/11/18 02:28:08;;;;;;;39.30;22.17;;;6.80;99.90;;;;;;5051527;28;20053;-86
2022/11/18 02:30:43;;;;;;;35.20;20.08;;;7.00;99.90;;;;;;5064004;28;20075;-86
2022/11/18 02:33:11;;;;;;;38.30;21.10;;;7.00;99.90;;;;;;5038959;28;20127;-87
2022/11/18 02:35:42;;;;;;;35.15;21.90;;;6.90;99.90;;;;;;5021929;28;20060;-85
2022/11/18 02:38:19;;;;;;;33.85;18.40;;;6.90;99.90;;;;;;5021127;28;20635;-86
2022/11/18 02:40:51;;;;;;;42.13;20.98;;;6.90;99.90;;;;;;5022522;28;20093;-87
2022/11/18 02:43:29;;;;;;;37.80;21.88;;;6.80;99.90;;;;;;5021836;28;20067;-85
2022/11/18 02:46:07;;;;;;;37.00;19.38;;;6.80;99.90;;;;;;5021197;28;20080;-84
2022/11/18 02:48:34;;;;;;;40.30;21.30;;;6.90;99.90;;;;;;5023269;28;20048;-87
2022/11/18 02:51:00;;;;;;;24.17;14.75;;;6.90;99.90;;;;;;5007599;28;20095;-86
2022/11/18 02:53:26;;;;;;;33.20;19.50;;;8.40;99.90;;;;;;5021212;28;20073;-85
2022/11/18 02:55:52;;;;;;;39.90;21.85;;;6.80;99.90;;;;;;5020906;28;20063;-86
2022/11/18 02:58:18;;;;;;;29.50;17.55;;;6.80;99.90;;;;;;5021476;28;20045;-87
2022/11/18 03:00:44;;;;;;;37.88;19.00;;;6.80;99.90;;;;;;5034109;28;20061;-85
2022/11/18 03:03:31;;;;;;;25.77;13.93;;;6.80;99.90;;;;;;5002067;28;20045;-88
2022/11/18 03:06:29;;;;;;;27.40;15.43;;;6.80;99.90;;;;;;5005524;28;20088;-85
2022/11/18 03:09:03;;;;;;;30.23;19.42;;;6.90;99.90;;;;;;5026641;28;20130;-84
2022/11/18 03:11:31;;;;;;;31.67;20.52;;;6.90;99.90;;;;;;5062301;28;20079;-86
2022/11/18 03:14:18;;;;;;;27.80;14.63;;;8.00;99.90;;;;;;5036180;28;20032;-83
2022/11/18 03:16:51;;;;;;;33.22;19.58;;;6.90;99.90;;;;;;5073837;28;20055;-87
2022/11/18 03:19:53;;;;;;;30.45;18.63;;;6.80;99.90;;;;;;5025799;28;20046;-86
2022/11/18 03:22:32;;;;;;;33.08;19.38;;;6.80;99.90;;;;;;5039377;28;20296;-85
2022/11/18 03:25:03;;;;;;;33.88;18.45;;;6.70;99.90;;;;;;5014727;28;20049;-85
2022/11/18 03:27:32;;;;;;;31.42;16.88;;;6.80;99.90;;;;;;5037868;28;20040;-84
2022/11/18 03:30:07;;;;;;;33.13;19.75;;;7.00;99.90;;;;;;5022237;28;20400;-84
2022/11/18 03:32:36;;;;;;;31.00;18.77;;;6.80;99.90;;;;;;5020653;28;20037;-84
2022/11/18 03:35:04;;;;;;;32.67;17.80;;;7.30;99.90;;;;;;5020632;28;20040;-86
2022/11/18 03:37:31;;;;;;;29.77;18.65;;;6.80;99.90;;;;;;5037730;28;20052;-85
2022/11/18 03:40:01;;;;;;;33.22;17.40;;;6.80;99.90;;;;;;5037441;28;20057;-84
2022/11/18 03:42:54;;;;;;;30.92;17.17;;;7.60;99.90;;;;;;5020671;28;20045;-84
2022/11/18 03:45:25;;;;;;;14.20;9.88;;;6.80;99.90;;;;;;5035012;28;20100;-86
2022/11/18 03:48:06;;;;;;;21.27;13.90;;;6.80;99.90;;;;;;5033454;28;20064;-85
2022/11/18 03:50:34;;;;;;;26.48;15.48;;;6.80;99.90;;;;;;5014212;28;20378;-85
2022/11/18 03:53:00;;;;;;;23.50;13.30;;;6.80;99.90;;;;;;5003339;28;20047;-84
2022/11/18 03:55:32;;;;;;;25.73;15.77;;;6.70;99.90;;;;;;5020487;28;20464;-86
2022/11/18 03:58:22;;;;;;;27.85;16.70;;;7.10;99.90;;;;;;5036076;28;20456;-86
2022/11/18 04:00:48;;;;;;;25.42;16.95;;;6.70;99.90;;;;;;5038925;28;20488;-85
2022/11/18 04:03:14;;;;;;;24.50;15.82;;;6.70;99.90;;;;;;5003402;28;20131;-84
2022/11/18 04:05:41;;;;;;;29.95;19.17;;;6.70;99.90;;;;;;5003803;28;20072;-85
2022/11/18 04:08:17;;;;;;;29.02;16.35;;;6.20;99.90;;;;;;5003444;28;20048;-85
2022/11/18 04:10:57;;;;;;;26.98;15.18;;;6.60;99.90;;;;;;5021284;28;20064;-85
2022/11/18 04:13:33;;;;;;;29.70;17.02;;;6.60;99.90;;;;;;5019852;28;20114;-85
2022/11/18 04:15:58;;;;;;;27.15;17.38;;;8.00;99.90;;;;;;5035908;28;20053;-87
2022/11/18 04:18:24;;;;;;;29.20;16.83;;;6.60;99.90;;;;;;5002945;28;20055;-85
2022/11/18 04:20:50;;;;;;;27.80;15.90;;;6.60;99.90;;;;;;5019740;28;20040;-86
2022/11/18 04:23:15;;;;;;;28.63;16.88;;;6.60;99.90;;;;;;5039237;28;20037;-86
2022/11/18 04:25:41;;;;;;;23.83;12.45;;;6.70;99.90;;;;;;5042027;28;20463;-82
2022/11/18 04:28:07;;;;;;;27.77;16.65;;;6.70;99.90;;;;;;5047712;28;20092;-81
2022/11/18 04:30:32;;;;;;;27.80;16.50;;;6.60;99.90;;;;;;5056635;28;20045;-84
2022/11/18 04:32:58;;;;;;;29.55;17.83;;;6.60;99.90;;;;;;5019879;28;20108;-86
2022/11/18 04:35:24;;;;;;;27.15;17.35;;;6.60;99.90;;;;;;5052618;28;20049;-85
2022/11/18 04:37:50;;;;;;;25.00;14.70;;;6.60;99.90;;;;;;5021534;28;21276;-85
2022/11/18 04:40:16;;;;;;;25.40;15.65;;;6.60;99.90;;;;;;5022465;28;20060;-85
2022/11/18 04:42:41;;;;;;;31.60;17.58;;;6.60;99.90;;;;;;5021929;28;20040;-85
2022/11/18 04:45:08;;;;;;;28.73;15.98;;;6.60;99.90;;;;;;5054537;28;20056;-87
2022/11/18 04:47:38;;;;;;;30.40;16.25;;;6.70;99.90;;;;;;5055261;28;20040;-85
2022/11/18 04:50:04;;;;;;;21.33;12.68;;;6.70;99.90;;;;;;5035170;28;20120;-85
2022/11/18 04:52:30;;;;;;;29.08;16.73;;;6.60;99.90;;;;;;5049727;28;20043;-84
2022/11/18 04:54:55;;;;;;;29.90;16.67;;;6.60;99.90;;;;;;5055551;28;20052;-85
2022/11/18 04:57:21;;;;;;;30.42;16.67;;;6.90;99.90;;;;;;5054577;28;20036;-85
2022/11/18 04:59:47;;;;;;;27.50;15.70;;;6.50;99.90;;;;;;5029306;28;20064;-85
2022/11/18 05:02:12;;;;;;;31.15;18.08;;;6.80;99.90;;;;;;5077673;28;20036;-87
2022/11/18 05:04:38;;;;;;;26.48;13.75;;;6.50;99.90;;;;;;5042075;28;20051;-86
2022/11/18 05:07:04;;;;;;;33.80;16.83;;;7.10;99.90;;;;;;5029436;28;20052;-89
2022/11/18 05:09:30;;;;;;;22.38;12.90;;;6.50;99.90;;;;;;5060098;28;20041;-84
2022/11/18 05:14:39;;;;;;;32.08;17.52;;;6.60;99.90;;;;;;5041274;28;20076;-84
2022/11/18 05:17:06;;;;;;;20.70;12.73;;;7.10;99.90;;;;;;5055032;28;20471;-86
2022/11/18 05:19:32;;;;;;;29.60;16.75;;;7.20;99.90;;;;;;5028046;28;20136;-85
2022/11/18 05:21:57;;;;;;;31.70;16.80;;;6.40;99.90;;;;;;5054890;28;20155;-84
2022/11/18 05:24:23;;;;;;;32.53;17.83;;;6.50;99.90;;;;;;5022038;28;20052;-86
2022/11/18 05:26:52;;;;;;;30.63;17.00;;;6.40;99.90;;;;;;5054954;28;20048;-86
2022/11/18 05:29:19;;;;;;;34.80;18.02;;;7.80;99.90;;;;;;5048991;28;20053;-86
2022/11/18 05:31:45;;;;;;;40.33;19.65;;;6.40;99.90;;;;;;5055014;28;20128;-85
2022/11/18 05:34:11;;;;;;;34.80;18.48;;;6.30;99.90;;;;;;5021448;28;20060;-85
2022/11/18 05:36:37;;;;;;;28.75;15.05;;;6.40;99.90;;;;;;5018531;28;20488;-86
2022/11/18 05:39:03;;;;;;;35.13;17.17;;;6.40;99.90;;;;;;5031905;28;20123;-85
2022/11/18 05:44:13;;;;;;;30.65;14.93;;;6.40;99.90;;;;;;5067237;28;20036;-82
2022/11/18 05:46:38;;;;;;;29.85;14.98;;;7.40;99.90;;;;;;5039476;28;20055;-83
2022/11/18 05:49:04;;;;;;;32.53;16.50;;;6.70;99.90;;;;;;5053271;28;20064;-86
2022/11/18 05:51:30;;;;;;;30.13;15.68;;;6.40;99.90;;;;;;5038435;28;20044;-86
2022/11/18 05:53:55;;;;;;;36.97;17.67;;;6.30;99.90;;;;;;5054791;28;20040;-83
2022/11/18 05:56:27;;;;;;;41.17;18.77;;;6.30;99.90;;;;;;5024338;28;20074;-86
2022/11/18 05:58:53;;;;;;;35.50;17.70;;;6.30;99.90;;;;;;5042550;28;20044;-85
2022/11/18 06:01:44;;;;;;;30.67;16.85;;;6.30;99.90;;;;;;5058029;28;20611;-86
2022/11/18 06:04:19;;;;;;;32.90;17.35;;;6.40;99.90;;;;;;5043857;28;20056;-85
2022/11/18 06:06:45;;;;;;;26.90;15.13;;;6.70;99.90;;;;;;5041790;28;20056;-85
2022/11/18 06:09:11;;;;;;;41.10;18.75;;;6.30;99.90;;;;;;5025575;28;20396;-85
2022/11/18 06:11:42;;;;;;;35.88;17.50;;;6.20;99.90;;;;;;5041970;28;20068;-85
2022/11/18 06:14:13;;;;;;;33.63;17.42;;;6.30;99.90;;;;;;5041608;28;20153;-85
2022/11/18 06:16:39;;;;;;;37.38;18.40;;;6.30;99.90;;;;;;5041681;28;20401;-86
2022/11/18 06:19:05;;;;;;;32.78;14.90;;;6.30;99.90;;;;;;5041605;28;20049;-85
2022/11/18 06:21:30;;;;;;;31.63;15.73;;;6.30;99.90;;;;;;5058432;28;20055;-85
2022/11/18 06:23:56;;;;;;;34.80;17.60;;;6.20;99.90;;;;;;5045590;28;20481;-86
2022/11/18 06:26:22;;;;;;;36.38;17.92;;;6.30;99.90;;;;;;5058068;28;20041;-86
2022/11/18 06:28:47;;;;;;;34.72;17.95;;;6.80;99.90;;;;;;5042251;28;20044;-85
2022/11/18 06:31:15;;;;;;;38.42;18.55;;;6.30;99.90;;;;;;5029005;28;20041;-84
2022/11/18 06:33:41;;;;;;;37.38;18.88;;;6.80;99.90;;;;;;5058644;28;20508;-85
2022/11/18 06:36:07;;;;;;;42.95;19.55;;;6.20;99.90;;;;;;5038931;28;20400;-84
2022/11/18 06:38:34;;;;;;;35.85;18.48;;;6.20;99.90;;;;;;5040154;28;20152;-85
2022/11/18 06:41:01;;;;;;;32.92;15.88;;;6.20;99.90;;;;;;5073203;28;20064;-84
2022/11/18 06:43:40;;;;;;;33.67;16.08;;;6.30;99.90;;;;;;5071321;28;20045;-85
2022/11/18 06:49:01;;;;;;;36.97;17.77;;;6.30;99.90;;;;;;5060537;28;20079;-85
2022/11/18 06:51:26;;;;;;;35.40;18.00;;;6.20;99.90;;;;;;5040141;28;20456;-84
2022/11/18 06:53:52;;;;;;;35.33;17.38;;;6.20;99.90;;;;;;5029824;28;20088;-84
2022/11/18 06:56:19;;;;;;;38.22;17.92;;;6.20;99.90;;;;;;5054802;28;20041;-87
2022/11/18 06:58:44;;;;;;;29.17;15.13;;;6.20;99.90;;;;;;5028786;28;20074;-81
2022/11/18 07:01:24;;;;;;;30.30;16.35;;;6.30;99.90;;;;;;5046455;28;20044;-83
2022/11/18 07:03:50;;;;;;;37.88;17.33;;;6.20;99.90;;;;;;5045626;28;20041;-85
2022/11/18 07:06:19;;;;;;;29.65;15.60;;;6.20;99.90;;;;;;5055972;28;20045;-86
2022/11/18 07:08:45;;;;;;;28.10;15.60;;;6.30;99.90;;;;;;5020728;28;20068;-84
2022/11/18 07:11:12;;;;;;;34.00;16.33;;;6.30;99.90;;;;;;5034619;28;20052;-85
2022/11/18 07:13:38;;;;;;;31.23;15.82;;;6.20;99.90;;;;;;5023827;28;20492;-85
2022/11/18 07:16:13;;;;;;;34.40;16.95;;;6.30;99.90;;;;;;5007380;28;20048;-85
2022/11/18 07:18:43;;;;;;;30.70;14.73;;;6.30;99.90;;;;;;5040904;28;20043;-85
2022/11/18 07:21:11;;;;;;;33.83;17.17;;;6.20;99.90;;;;;;5050063;28;20052;-84
2022/11/18 07:23:36;;;;;;;26.67;12.18;;;6.70;99.90;;;;;;5041980;28;20045;-84
2022/11/18 07:26:02;;;;;;;29.92;15.85;;;6.20;99.90;;;;;;5027177;28;20485;-85
2022/11/18 07:28:28;;;;;;;33.35;16.67;;;6.10;99.90;;;;;;5026287;28;20102;-86
2022/11/18 07:31:03;;;;;;;29.38;16.00;;;7.50;99.90;;;;;;5041563;28;20102;-83
2022/11/18 07:33:29;;;;;;;25.95;13.60;;;6.10;99.90;;;;;;5043118;28;20052;-84
2022/11/18 07:35:55;;;;;;;29.35;15.40;;;6.20;99.90;;;;;;5028602;28;20070;-84
2022/11/18 07:38:21;;;;;;;26.65;14.40;;;6.80;99.90;;;;;;5008323;28;20057;-83
2022/11/18 07:40:47;;;;;;;29.75;15.15;;;6.20;99.90;;;;;;5054634;28;20072;-86
2022/11/18 07:43:13;;;;;;;33.30;15.50;;;6.00;99.90;;;;;;5038765;28;20045;-85
2022/11/18 07:45:38;;;;;;;31.05;16.13;;;6.10;99.90;;;;;;5040293;28;20493;-85
2022/11/18 07:48:04;;;;;;;30.45;14.82;;;6.00;99.90;;;;;;5057711;28;20061;-85
2022/11/18 07:50:33;;;;;;;31.65;15.75;;;6.10;99.90;;;;;;5057700;28;20064;-87
2022/11/18 07:52:59;;;;;;;23.33;13.75;;;6.30;99.90;;;;;;5038597;28;20516;-85
2022/11/18 07:55:25;;;;;;;33.05;15.13;;;6.10;99.90;;;;;;5042613;28;20080;-85
2022/11/18 07:57:51;;;;;;;29.92;15.77;;;6.00;99.90;;;;;;5026617;28;20041;-85
2022/11/18 08:00:20;;;;;;;25.05;13.90;;;6.00;99.90;;;;;;5028353;28;20477;-85
2022/11/18 08:02:49;;;;;;;29.50;14.27;;;6.10;99.90;;;;;;5029950;28;20048;-84
2022/11/18 08:05:14;;;;;;;25.83;13.38;;;6.00;99.90;;;;;;5022481;28;20056;-86
2022/11/18 08:07:40;;;;;;;26.90;14.20;;;6.00;99.90;;;;;;5025254;28;20033;-86
2022/11/18 08:10:06;;;;;;;28.70;15.73;;;5.40;99.90;;;;;;5021536;28;20053;-85
2022/11/18 08:12:35;;;;;;;21.92;12.15;;;6.00;99.90;;;;;;5002870;28;20118;-83
2022/11/18 08:15:01;;;;;;;22.38;13.07;;;6.00;99.90;;;;;;5011015;28;20466;-83
2022/11/18 08:17:27;;;;;;;21.63;12.07;;;5.90;99.90;;;;;;5033095;28;20041;-83
2022/11/18 08:19:54;;;;;;;21.73;12.02;;;6.60;99.90;;;;;;5026936;28;20056;-84
2022/11/18 08:22:19;;;;;;;18.65;11.95;;;6.00;99.90;;;;;;5021992;28;20060;-84
2022/11/18 08:24:49;;;;;;;21.05;11.23;;;7.20;99.90;;;;;;5036152;28;20115;-86
2022/11/18 08:27:18;;;;;;;19.88;10.30;;;6.00;99.90;;;;;;5021892;28;20052;-85
2022/11/18 08:29:44;;;;;;;16.20;9.43;;;5.90;99.90;;;;;;5004081;28;20143;-85
2022/11/18 08:32:09;;;;;;;18.20;10.93;;;6.00;99.90;;;;;;5018333;28;20080;-83
2022/11/18 08:34:35;;;;;;;18.73;11.68;;;5.90;99.90;;;;;;5002492;28;20048;-83
2022/11/18 08:37:02;;;;;;;23.27;12.15;;;5.80;99.90;;;;;;5027259;28;20501;-83
2022/11/18 08:39:28;;;;;;;19.83;11.10;;;5.80;99.90;;;;;;5051082;28;20041;-86
2022/11/18 08:41:56;;;;;;;22.40;11.02;;;5.80;99.90;;;;;;5045321;28;20076;-85
2022/11/18 08:44:22;;;;;;;14.20;8.05;;;5.90;99.90;;;;;;5048640;28;20038;-84
2022/11/18 08:46:50;;;;;;;16.55;9.93;;;6.90;99.90;;;;;;5044779;28;20048;-85
2022/11/18 08:49:16;;;;;;;19.42;10.65;;;4.80;99.90;;;;;;5035443;28;20044;-84
2022/11/18 08:51:42;;;;;;;18.13;10.80;;;6.70;99.90;;;;;;5024062;28;20060;-85
2022/11/18 08:54:08;;;;;;;19.60;10.65;;;6.00;99.90;;;;;;5028984;28;20435;-85
2022/11/18 08:56:34;;;;;;;26.02;13.88;;;5.90;99.90;;;;;;5042702;28;20122;-84
2022/11/18 08:59:02;;;;;;;25.00;13.50;;;5.90;99.90;;;;;;5008021;28;20111;-86
2022/11/18 09:01:28;;;;;;;26.13;13.15;;;5.80;99.90;;;;;;5025530;28;20127;-86
2022/11/18 09:03:54;;;;;;;19.35;11.18;;;5.90;99.90;;;;;;5018031;28;20126;-85
2022/11/18 09:06:21;;;;;;;27.85;14.02;;;5.80;99.90;;;;;;5007110;28;20044;-84
2022/11/18 09:08:47;;;;;;;25.08;13.27;;;5.80;99.90;;;;;;5032116;28;20486;-84
2022/11/18 09:11:14;;;;;;;25.05;14.02;;;5.80;99.90;;;;;;4995176;28;20053;-85
2022/11/18 09:13:41;;;;;;;31.60;13.98;;;5.80;99.90;;;;;;5010255;28;20052;-85
2022/11/18 09:16:07;;;;;;;23.85;13.27;;;5.90;99.90;;;;;;5012110;28;20382;-83
2022/11/18 09:18:34;;;;;;;22.38;12.27;;;6.00;99.90;;;;;;5036629;28;20052;-86
2022/11/18 09:21:09;;;;;;;24.50;13.40;;;6.00;99.90;;;;;;5011842;28;20045;-85
2022/11/18 09:23:35;;;;;;;21.77;11.32;;;5.90;99.90;;;;;;5023300;28;20045;-85
2022/11/18 09:26:06;;;;;;;25.70;13.98;;;5.90;99.90;;;;;;5025677;28;20045;-83
2022/11/18 09:28:31;;;;;;;24.02;11.82;;;5.90;99.90;;;;;;5020091;28;20524;-85
2022/11/18 09:30:58;;;;;;;28.73;13.60;;;6.20;99.90;;;;;;5040660;28;20084;-86
2022/11/18 09:33:23;;;;;;;28.75;12.38;;;5.70;99.90;;;;;;5016676;28;20049;-86
2022/11/18 09:35:49;;;;;;;41.42;14.18;;;5.70;99.90;;;;;;5040490;28;20056;-87
2022/11/18 09:38:15;;;;;;;25.70;14.20;;;5.70;99.90;;;;;;5036992;28;20057;-84
2022/11/18 09:41:19;;;;;;;27.13;14.25;;;5.70;99.90;;;;;;5042503;28;20049;-88
2022/11/18 09:44:00;;;;;;;25.88;12.35;;;4.40;99.90;;;;;;5052012;28;20053;-89
2022/11/18 09:47:03;;;;;;;23.55;13.27;;;5.70;99.90;;;;;;5040208;28;20068;-85
2022/11/18 09:49:48;;;;;;;22.42;11.98;;;5.70;99.90;;;;;;5069491;28;20041;-86
2022/11/18 09:52:19;;;;;;;25.10;13.15;;;5.70;99.90;;;;;;5038509;28;20084;-85
2022/11/18 09:54:45;;;;;;;24.25;13.30;;;5.70;99.90;;;;;;5023800;28;20509;-87
2022/11/18 09:57:14;;;;;;;25.15;12.30;;;6.40;99.90;;;;;;5037633;28;20083;-87
2022/11/18 09:59:43;;;;;;;29.30;14.38;;;5.70;99.90;;;;;;5014857;28;20046;-87
2022/11/18 10:02:22;;;;;;;28.10;14.63;;;5.70;99.90;;;;;;5022593;28;20053;-87
2022/11/18 10:04:47;;;;;;;27.23;13.60;;;5.60;99.90;;;;;;5033965;28;20414;-86
2022/11/18 10:07:22;;;;;;;25.10;14.30;;;5.70;99.90;;;;;;5019566;28;20049;-86
2022/11/18 10:09:47;;;;;;;;;;;5.70;99.90;;;;;;5025619;28;20064;-87
2022/11/18 10:12:38;;;;;;;24.77;13.88;;;5.70;99.90;;;;;;5037009;28;19970;-86
2022/11/18 10:15:07;;;;;;;26.83;13.73;;;5.70;99.90;;;;;;5023746;28;20056;-86
2022/11/18 10:17:44;;;;;;;29.10;16.23;;;5.70;99.90;;;;;;5065121;28;20045;-87
2022/11/18 10:20:19;;;;;;;30.85;15.55;;;5.80;99.90;;;;;;5042668;28;20037;-85
2022/11/18 10:23:15;;;;;;;24.73;12.43;;;5.70;99.90;;;;;;5055990;28;20037;-85
2022/11/18 10:25:42;;;;;;;31.60;14.55;;;5.70;99.90;;;;;;5018136;28;20095;-84
2022/11/18 10:28:22;;;;;;;30.17;15.43;;;5.70;99.90;;;;;;5013943;28;20071;-84
2022/11/18 10:30:48;;;;;;;32.22;14.73;;;5.70;99.90;;;;;;5032287;28;20136;-87
2022/11/18 10:33:20;;;;;;;28.13;13.43;;;6.90;99.90;;;;;;5054391;28;20077;-86
2022/11/18 10:35:46;;;;;;;31.38;14.80;;;5.70;99.90;;;;;;5050895;28;20052;-84
2022/11/18 10:38:13;;;;;;;24.63;12.82;;;5.60;99.90;;;;;;5036569;28;20049;-85
2022/11/18 10:40:55;;;;;;;29.50;15.05;;;6.80;99.90;;;;;;5055913;28;20049;-86
2022/11/18 10:43:47;;;;;;;30.52;14.48;;;5.50;99.90;;;;;;5061625;28;20118;-86
2022/11/18 10:46:33;;;;;;;27.73;13.15;;;5.60;99.90;;;;;;5041825;28;20104;-82
2022/11/18 10:49:08;;;;;;;23.10;10.57;;;5.50;99.90;;;;;;5055476;28;20050;-81
2022/11/18 10:51:39;;;;;;;26.20;12.80;;;5.60;99.90;;;;;;5065076;28;20040;-85
2022/11/18 10:54:20;;;;;;;18.65;10.40;;;5.50;99.90;;;;;;5048236;28;20059;-86
2022/11/18 10:56:48;;;;;;;27.45;13.73;;;5.50;99.90;;;;;;5042457;28;20055;-86
2022/11/18 10:59:35;;;;;;;26.95;13.35;;;5.90;99.90;;;;;;5045710;28;20044;-84
2022/11/18 11:02:29;;;;;;;29.50;14.95;;;5.50;99.90;;;;;;5063566;28;20092;-84
2022/11/18 11:04:57;;;;;;;22.73;12.23;;;5.40;99.90;;;;;;5048897;28;20087;-87
2022/11/18 11:07:25;;;;;;;34.97;16.52;;;5.50;99.90;;;;;;5056843;28;20037;-87
2022/11/18 11:10:13;;;;;;;29.95;15.82;;;5.30;99.90;;;;;;5025916;28;20455;-86
2022/11/18 11:13:08;;;;;;;24.52;12.55;;;5.40;99.90;;;;;;5053004;28;20037;-87
2022/11/18 11:15:44;;;;;;;30.85;15.35;;;6.30;99.90;;;;;;5035354;28;20060;-86
2022/11/18 11:21:18;;;;;;;30.35;15.40;;;5.30;99.90;;;;;;5047534;28;20045;-84
2022/11/18 11:23:44;;;;;;;26.23;11.43;;;6.90;99.90;;;;;;5037087;28;20404;-85
2022/11/18 11:26:32;;;;;;;26.23;12.70;;;5.30;99.90;;;;;;5028552;28;20388;-85
2022/11/18 11:29:04;;;;;;;33.10;16.55;;;5.40;99.90;;;;;;5044243;28;20059;-86
2022/11/18 11:32:00;;;;;;;27.77;11.35;;;5.20;99.90;;;;;;5043190;28;20088;-84
2022/11/18 11:34:58;;;;;;;31.90;13.15;;;5.30;99.90;;;;;;5073328;28;20056;-85
2022/11/18 11:37:56;;;;;;;29.02;14.32;;;5.10;99.90;;;;;;5050084;28;20405;-87
2022/11/18 11:40:25;;;;;;;35.03;15.65;;;5.10;99.90;;;;;;5030484;28;20104;-86
2022/11/18 11:43:00;;;;;;;26.88;12.55;;;5.00;99.90;;;;;;5032239;28;20427;-86
2022/11/18 11:46:01;;;;;;;25.35;12.98;;;5.00;99.90;;;;;;5019674;28;20131;-85
2022/11/18 11:48:33;;;;;;;26.88;13.20;;;5.00;99.90;;;;;;5014340;28;20088;-84
2022/11/18 11:51:20;;;;;;;26.20;13.80;;;5.10;99.90;;;;;;5043627;28;20052;-84
2022/11/18 11:54:11;;;;;;;23.13;12.70;;;5.10;99.90;;;;;;5006992;28;20064;-83
2022/11/18 11:56:58;;;;;;;31.40;13.80;;;5.00;99.90;;;;;;5038415;28;20049;-83
2022/11/18 11:59:26;;;;;;;34.03;15.73;;;4.90;99.90;;;;;;5041565;28;20037;-84
2022/11/18 12:02:30;;;;;;;32.83;15.82;;;4.90;99.90;;;;;;5044427;28;20385;-81
2022/11/18 12:05:18;;;;;;;28.90;14.63;;;4.80;99.90;;;;;;5028576;28;20041;-82
2022/11/18 12:07:56;;;;;;;25.05;13.07;;;4.90;99.90;;;;;;5042236;28;20055;-84
2022/11/18 12:10:32;;;;;;;26.23;11.02;;;4.90;99.90;;;;;;5054970;28;20109;-88
2022/11/18 12:13:32;;;;;;;32.63;15.05;;;4.00;99.90;;;;;;5061496;28;20067;-84
2022/11/18 12:16:26;;;;;;;29.90;13.35;;;4.80;99.90;;;;;;5046463;28;20063;-85
2022/11/18 12:19:02;;;;;;;31.85;13.57;;;4.80;99.90;;;;;;5056105;28;20055;-83
2022/11/18 12:21:48;;;;;;;33.55;14.43;;;4.80;99.90;;;;;;5035946;28;20059;-85
2022/11/18 12:24:31;;;;;;;29.65;14.77;;;4.70;99.90;;;;;;5030630;28;20044;-85
2022/11/18 12:26:58;;;;;;;39.95;15.75;;;5.30;99.90;;;;;;5039799;28;20053;-84
2022/11/18 12:29:25;;;;;;;29.05;13.75;;;4.70;99.90;;;;;;5043502;28;20125;-85
2022/11/18 12:31:54;;;;;;;34.78;14.05;;;4.70;99.90;;;;;;5027645;28;20048;-84
2022/11/18 12:34:46;;;;;;;30.00;13.57;;;4.70;99.90;;;;;;5039750;28;20500;-84
2022/11/18 12:37:24;;;;;;;25.08;12.88;;;4.70;99.90;;;;;;5034892;28;20052;-86
2022/11/18 12:39:57;;;;;;;30.73;14.40;;;4.70;99.90;;;;;;5057045;28;20048;-85
2022/11/18 12:45:55;;;;;;;36.83;15.25;;;6.00;99.90;;;;;;5038549;28;20139;-85
2022/11/18 12:48:38;;;;;;;28.42;13.60;;;4.70;99.90;;;;;;5056114;28;20040;-85
2022/11/18 12:51:13;;;;;;;29.33;13.93;;;4.70;99.90;;;;;;5037253;28;20044;-85
2022/11/18 12:53:44;;;;;;;34.63;14.18;;;4.60;99.90;;;;;;5049051;28;20044;-84
2022/11/18 12:56:30;;;;;;;38.88;16.52;;;4.60;99.90;;;;;;5067193;28;20051;-85
2022/11/18 12:59:01;;;;;;;39.63;16.63;;;4.50;99.90;;;;;;5047099;28;20044;-85
2022/11/18 13:01:34;;;;;;;36.40;14.70;;;4.50;99.90;;;;;;5029903;28;20231;-84
2022/11/18 13:04:10;;;;;;;28.80;14.48;;;4.90;99.90;;;;;;5035602;28;20041;-86
2022/11/18 13:06:39;;;;;;;28.88;13.85;;;5.20;99.90;;;;;;5055777;28;20041;-85
2022/11/18 13:09:13;;;;;;;32.17;14.93;;;4.60;99.90;;;;;;5036764;28;20053;-85
2022/11/18 13:12:18;;;;;;;29.00;12.70;;;4.70;99.90;;;;;;5008839;28;20037;-84
2022/11/18 13:17:53;;;;;;;29.25;13.20;;;5.10;99.90;;;;;;5045410;28;20040;-84
2022/11/18 13:20:55;;;;;;;25.05;12.15;;;4.50;99.90;;;;;;5062248;28;20040;-83
2022/11/18 13:26:34;;;;;;;32.58;15.68;;;4.40;99.90;;;;;;5027737;28;20055;-81
2022/11/18 13:29:18;;;;;;;19.63;8.48;;;4.30;99.90;;;;;;5038012;28;20045;-84
2022/11/18 13:32:12;;;;;;;23.45;11.57;;;4.40;99.90;;;;;;5055926;28;20048;-83